sensor_id;sensor_type;location;lat;lon;timestamp;pressure;altitude;pressure_sealevel;temperature;humidity
57900;BME280;60605;53.716;19.940;2023-04-21T00:00:19;101031.29;;;5.77;86.03
57900;BME280;60605;53.716;19.940;2023-04-21T00:05:42;101031.46;;;5.69;87.03
57900;BME280;60605;53.716;19.940;2023-04-21T00:10:45;101029.27;;;5.60;87.43
57900;BME280;60605;53.716;19.940;2023-04-21T00:15:49;101030.05;;;5.51;88.26
57900;BME280;60605;53.716;19.940;2023-04-21T00:20:53;101024.99;;;5.41;88.43
57900;BME280;60605;53.716;19.940;2023-04-21T00:25:57;101021.47;;;5.33;89.34
57900;BME280;60605;53.716;19.940;2023-04-21T00:31:01;101019.48;;;5.26;89.95
57900;BME280;60605;53.716;19.940;2023-04-21T00:36:04;101017.73;;;5.17;90.14
57900;BME280;60605;53.716;19.940;2023-04-21T00:41:07;101019.55;;;5.09;90.63
57900;BME280;60605;53.716;19.940;2023-04-21T00:46:11;101016.98;;;4.99;90.91
57900;BME280;60605;53.716;19.940;2023-04-21T00:51:14;101014.78;;;4.90;91.27
57900;BME280;60605;53.716;19.940;2023-04-21T00:56:17;101014.10;;;4.78;91.46
57900;BME280;60605;53.716;19.940;2023-04-21T01:01:21;101015.53;;;4.67;91.99
57900;BME280;60605;53.716;19.940;2023-04-21T01:06:27;101020.94;;;4.58;92.71
57900;BME280;60605;53.716;19.940;2023-04-21T01:11:31;101019.37;;;4.52;93.37
57900;BME280;60605;53.716;19.940;2023-04-21T01:16:34;101015.35;;;4.45;93.62
57900;BME280;60605;53.716;19.940;2023-04-21T01:21:39;101017.20;;;4.41;94.12
57900;BME280;60605;53.716;19.940;2023-04-21T01:26:45;101016.31;;;4.36;94.04
57900;BME280;60605;53.716;19.940;2023-04-21T01:31:51;101008.35;;;4.27;94.00
57900;BME280;60605;53.716;19.940;2023-04-21T01:36:54;101008.09;;;4.18;94.22
57900;BME280;60605;53.716;19.940;2023-04-21T01:41:57;101009.77;;;4.10;94.93
57900;BME280;60605;53.716;19.940;2023-04-21T01:47:00;101006.77;;;4.05;95.61
57900;BME280;60605;53.716;19.940;2023-04-21T01:52:04;101006.80;;;4.01;96.22
57900;BME280;60605;53.716;19.940;2023-04-21T01:57:07;101004.95;;;3.96;96.36
57900;BME280;60605;53.716;19.940;2023-04-21T02:02:10;100999.19;;;3.90;96.48
57900;BME280;60605;53.716;19.940;2023-04-21T02:07:14;100992.23;;;3.83;96.59
57900;BME280;60605;53.716;19.940;2023-04-21T02:12:17;100995.63;;;3.76;96.97
57900;BME280;60605;53.716;19.940;2023-04-21T02:17:20;100995.51;;;3.69;97.54
57900;BME280;60605;53.716;19.940;2023-04-21T02:22:24;100996.42;;;3.63;98.05
57900;BME280;60605;53.716;19.940;2023-04-21T02:27:27;100994.83;;;3.57;98.24
57900;BME280;60605;53.716;19.940;2023-04-21T02:32:30;100992.67;;;3.51;98.57
57900;BME280;60605;53.716;19.940;2023-04-21T02:37:34;100989.89;;;3.47;99.40
57900;BME280;60605;53.716;19.940;2023-04-21T02:42:37;100989.34;;;3.45;99.42
57900;BME280;60605;53.716;19.940;2023-04-21T02:47:41;100995.65;;;3.40;99.30
57900;BME280;60605;53.716;19.940;2023-04-21T02:52:44;100991.83;;;3.35;99.80
57900;BME280;60605;53.716;19.940;2023-04-21T02:57:47;100992.64;;;3.37;100.00
57900;BME280;60605;53.716;19.940;2023-04-21T03:02:50;100993.29;;;3.35;99.91
57900;BME280;60605;53.716;19.940;2023-04-21T03:07:55;100995.79;;;3.28;99.83
57900;BME280;60605;53.716;19.940;2023-04-21T03:12:58;100992.92;;;3.23;100.00
57900;BME280;60605;53.716;19.940;2023-04-21T03:18:02;100993.08;;;3.18;99.95
57900;BME280;60605;53.716;19.940;2023-04-21T03:23:05;100992.95;;;3.14;99.98
57900;BME280;60605;53.716;19.940;2023-04-21T03:28:08;100988.11;;;3.12;100.00
57900;BME280;60605;53.716;19.940;2023-04-21T03:33:12;100985.10;;;3.10;100.00
57900;BME280;60605;53.716;19.940;2023-04-21T03:38:15;100987.86;;;3.07;100.00
57900;BME280;60605;53.716;19.940;2023-04-21T03:43:18;100988.05;;;3.07;100.00
57900;BME280;60605;53.716;19.940;2023-04-21T03:48:21;100990.45;;;3.08;100.00
57900;BME280;60605;53.716;19.940;2023-04-21T03:53:24;100987.62;;;3.15;100.00
57900;BME280;60605;53.716;19.940;2023-04-21T03:58:27;100988.23;;;3.22;100.00
57900;BME280;60605;53.716;19.940;2023-04-21T04:03:31;100991.67;;;3.32;100.00
57900;BME280;60605;53.716;19.940;2023-04-21T04:08:34;100987.45;;;3.47;100.00
57900;BME280;60605;53.716;19.940;2023-04-21T04:13:37;100989.67;;;3.78;100.00
57900;BME280;60605;53.716;19.940;2023-04-21T04:18:41;100993.53;;;4.63;100.00
57900;BME280;60605;53.716;19.940;2023-04-21T04:23:44;100989.84;;;5.53;100.00
57900;BME280;60605;53.716;19.940;2023-04-21T04:28:48;100996.19;;;6.55;99.22
57900;BME280;60605;53.716;19.940;2023-04-21T04:33:51;100993.41;;;7.75;96.37
57900;BME280;60605;53.716;19.940;2023-04-21T04:38:57;100992.58;;;8.86;92.39
57900;BME280;60605;53.716;19.940;2023-04-21T04:44:01;100988.77;;;9.78;88.33
57900;BME280;60605;53.716;19.940;2023-04-21T04:49:06;100990.77;;;10.83;83.55
57900;BME280;60605;53.716;19.940;2023-04-21T04:54:10;100989.04;;;12.17;80.81
57900;BME280;60605;53.716;19.940;2023-04-21T04:59:13;100989.45;;;13.65;77.18
57900;BME280;60605;53.716;19.940;2023-04-21T05:04:16;100994.86;;;15.18;72.46
57900;BME280;60605;53.716;19.940;2023-04-21T05:09:20;100998.02;;;16.48;66.42
57900;BME280;60605;53.716;19.940;2023-04-21T05:14:24;101001.88;;;17.53;62.06
57900;BME280;60605;53.716;19.940;2023-04-21T05:19:28;101001.88;;;18.72;58.93
57900;BME280;60605;53.716;19.940;2023-04-21T05:24:32;100998.24;;;19.76;54.63
57900;BME280;60605;53.716;19.940;2023-04-21T05:29:36;100998.73;;;20.66;50.66
57900;BME280;60605;53.716;19.940;2023-04-21T05:34:39;100998.55;;;21.31;48.21
57900;BME280;60605;53.716;19.940;2023-04-21T05:39:42;100999.77;;;21.99;45.58
57900;BME280;60605;53.716;19.940;2023-04-21T05:44:46;100999.37;;;22.21;43.02
57900;BME280;60605;53.716;19.940;2023-04-21T05:49:52;101001.80;;;22.81;41.88
57900;BME280;60605;53.716;19.940;2023-04-21T05:54:57;101003.56;;;23.27;39.19
57900;BME280;60605;53.716;19.940;2023-04-21T06:00:01;101000.95;;;23.76;37.28
57900;BME280;60605;53.716;19.940;2023-04-21T06:05:06;101002.02;;;24.04;35.08
57900;BME280;60605;53.716;19.940;2023-04-21T06:10:12;100996.55;;;24.14;34.15
57900;BME280;60605;53.716;19.940;2023-04-21T06:15:16;100996.55;;;24.09;33.24
57900;BME280;60605;53.716;19.940;2023-04-21T06:20:20;100994.23;;;24.26;32.76
57900;BME280;60605;53.716;19.940;2023-04-21T06:25:23;100987.37;;;24.57;31.83
57900;BME280;60605;53.716;19.940;2023-04-21T06:30:28;100987.59;;;25.04;31.91
57900;BME280;60605;53.716;19.940;2023-04-21T06:35:31;100988.43;;;25.88;30.70
57900;BME280;60605;53.716;19.940;2023-04-21T06:40:35;100991.63;;;26.96;30.08
57900;BME280;60605;53.716;19.940;2023-04-21T06:45:38;100995.43;;;27.89;27.95
57900;BME280;60605;53.716;19.940;2023-04-21T06:50:42;100994.73;;;28.07;26.81
57900;BME280;60605;53.716;19.940;2023-04-21T06:55:47;100994.23;;;28.36;26.84
57900;BME280;60605;53.716;19.940;2023-04-21T07:00:50;100994.34;;;29.07;25.77
57900;BME280;60605;53.716;19.940;2023-04-21T07:05:55;100993.94;;;29.79;25.33
57900;BME280;60605;53.716;19.940;2023-04-21T07:10:58;100995.41;;;30.66;24.50
57900;BME280;60605;53.716;19.940;2023-04-21T07:16:01;100995.73;;;31.36;23.71
57900;BME280;60605;53.716;19.940;2023-04-21T07:21:04;100997.33;;;31.95;23.18
57900;BME280;60605;53.716;19.940;2023-04-21T07:26:08;100994.73;;;32.40;22.72
57900;BME280;60605;53.716;19.940;2023-04-21T07:31:11;100993.10;;;32.97;21.97
57900;BME280;60605;53.716;19.940;2023-04-21T07:36:15;100987.38;;;33.32;20.97
57900;BME280;60605;53.716;19.940;2023-04-21T07:41:18;100991.33;;;33.72;20.62
57900;BME280;60605;53.716;19.940;2023-04-21T07:46:21;100985.08;;;33.88;20.39
57900;BME280;60605;53.716;19.940;2023-04-21T07:51:27;100982.11;;;34.19;20.36
57900;BME280;60605;53.716;19.940;2023-04-21T07:56:31;100979.02;;;34.52;19.75
57900;BME280;60605;53.716;19.940;2023-04-21T08:01:35;100979.71;;;34.71;19.25
57900;BME280;60605;53.716;19.940;2023-04-21T08:06:38;100975.52;;;35.05;18.85
57900;BME280;60605;53.716;19.940;2023-04-21T08:11:42;100973.35;;;35.14;18.51
57900;BME280;60605;53.716;19.940;2023-04-21T08:16:45;100964.70;;;34.79;18.04
57900;BME280;60605;53.716;19.940;2023-04-21T08:21:48;100958.02;;;34.49;17.68
57900;BME280;60605;53.716;19.940;2023-04-21T08:26:51;100955.86;;;34.49;17.77
57900;BME280;60605;53.716;19.940;2023-04-21T08:31:55;100954.52;;;34.35;17.50
57900;BME280;60605;53.716;19.940;2023-04-21T08:36:59;100952.34;;;34.61;17.39
57900;BME280;60605;53.716;19.940;2023-04-21T08:42:03;100947.98;;;34.74;16.87
57900;BME280;60605;53.716;19.940;2023-04-21T08:47:09;100945.20;;;34.67;16.91
57900;BME280;60605;53.716;19.940;2023-04-21T08:52:13;100940.15;;;34.49;16.49
57900;BME280;60605;53.716;19.940;2023-04-21T08:57:16;100937.67;;;34.13;16.82
57900;BME280;60605;53.716;19.940;2023-04-21T09:02:20;100931.73;;;34.44;17.02
57900;BME280;60605;53.716;19.940;2023-04-21T09:07:35;100927.63;;;33.96;16.30
57900;BME280;60605;53.716;19.940;2023-04-21T09:12:39;100919.37;;;33.37;17.19
57900;BME280;60605;53.716;19.940;2023-04-21T09:17:45;100914.02;;;33.50;17.48
57900;BME280;60605;53.716;19.940;2023-04-21T09:22:48;100903.30;;;33.65;18.01
57900;BME280;60605;53.716;19.940;2023-04-21T09:27:53;100897.43;;;34.13;17.55
57900;BME280;60605;53.716;19.940;2023-04-21T09:32:57;100894.21;;;34.04;16.57
57900;BME280;60605;53.716;19.940;2023-04-21T09:38:02;100900.05;;;33.52;16.75
57900;BME280;60605;53.716;19.940;2023-04-21T09:43:06;100892.66;;;33.44;16.86
57900;BME280;60605;53.716;19.940;2023-04-21T09:48:11;100888.34;;;32.84;16.97
57900;BME280;60605;53.716;19.940;2023-04-21T09:53:20;100878.75;;;32.21;16.86
57900;BME280;60605;53.716;19.940;2023-04-21T09:58:30;100875.88;;;31.69;17.40
57900;BME280;60605;53.716;19.940;2023-04-21T10:03:38;100866.95;;;31.78;17.97
57900;BME280;60605;53.716;19.940;2023-04-21T10:08:45;100865.27;;;31.69;17.78
57900;BME280;60605;53.716;19.940;2023-04-21T10:13:49;100860.34;;;30.06;18.47
57900;BME280;60605;53.716;19.940;2023-04-21T10:18:52;100851.05;;;27.29;19.99
57900;BME280;60605;53.716;19.940;2023-04-21T10:23:56;100838.97;;;24.98;22.20
57900;BME280;60605;53.716;19.940;2023-04-21T10:29:07;100836.70;;;23.65;24.19
57900;BME280;60605;53.716;19.940;2023-04-21T10:34:15;100836.49;;;22.70;24.58
57900;BME280;60605;53.716;19.940;2023-04-21T10:39:33;100836.45;;;22.01;25.66
57900;BME280;60605;53.716;19.940;2023-04-21T10:44:50;100824.45;;;21.53;26.31
57900;BME280;60605;53.716;19.940;2023-04-21T10:49:56;100819.00;;;21.17;26.91
57900;BME280;60605;53.716;19.940;2023-04-21T11:00:04;100819.63;;;20.65;27.08
57900;BME280;60605;53.716;19.940;2023-04-21T11:05:09;100817.67;;;20.59;27.13
57900;BME280;60605;53.716;19.940;2023-04-21T11:10:13;100814.30;;;20.44;27.42
57900;BME280;60605;53.716;19.940;2023-04-21T11:15:16;100813.71;;;20.37;27.78
57900;BME280;60605;53.716;19.940;2023-04-21T11:20:20;100804.67;;;20.30;28.07
57900;BME280;60605;53.716;19.940;2023-04-21T11:25:23;100796.35;;;20.24;28.23
57900;BME280;60605;53.716;19.940;2023-04-21T11:30:31;100788.69;;;20.23;28.41
57900;BME280;60605;53.716;19.940;2023-04-21T11:35:39;100778.45;;;20.22;28.49
57900;BME280;60605;53.716;19.940;2023-04-21T11:40:49;100773.58;;;20.13;28.32
57900;BME280;60605;53.716;19.940;2023-04-21T11:45:53;100761.97;;;20.16;28.75
57900;BME280;60605;53.716;19.940;2023-04-21T11:50:56;100757.13;;;20.25;28.78
57900;BME280;60605;53.716;19.940;2023-04-21T11:56:00;100757.10;;;20.32;28.92
57900;BME280;60605;53.716;19.940;2023-04-21T12:01:07;100747.95;;;20.35;28.76
57900;BME280;60605;53.716;19.940;2023-04-21T12:06:22;100746.56;;;20.45;29.38
57900;BME280;60605;53.716;19.940;2023-04-21T12:11:30;100735.59;;;20.58;29.85
57900;BME280;60605;53.716;19.940;2023-04-21T12:16:36;100729.74;;;20.69;29.37
57900;BME280;60605;53.716;19.940;2023-04-21T12:21:39;100724.92;;;20.63;29.16
57900;BME280;60605;53.716;19.940;2023-04-21T12:26:42;100724.59;;;20.52;29.05
57900;BME280;60605;53.716;19.940;2023-04-21T12:31:46;100719.60;;;20.50;29.20
57900;BME280;60605;53.716;19.940;2023-04-21T12:36:49;100708.91;;;20.51;29.06
57900;BME280;60605;53.716;19.940;2023-04-21T12:41:53;100702.30;;;20.48;29.37
57900;BME280;60605;53.716;19.940;2023-04-21T12:46:58;100700.14;;;20.46;29.31
57900;BME280;60605;53.716;19.940;2023-04-21T12:52:01;100697.38;;;20.31;29.56
57900;BME280;60605;53.716;19.940;2023-04-21T12:57:07;100689.91;;;20.39;30.26
57900;BME280;60605;53.716;19.940;2023-04-21T13:02:11;100681.64;;;20.48;29.52
57900;BME280;60605;53.716;19.940;2023-04-21T13:07:14;100681.43;;;20.50;29.69
57900;BME280;60605;53.716;19.940;2023-04-21T13:12:18;100672.22;;;20.37;29.51
57900;BME280;60605;53.716;19.940;2023-04-21T13:17:21;100672.29;;;20.16;29.87
57900;BME280;60605;53.716;19.940;2023-04-21T13:22:25;100663.00;;;20.18;29.98
57900;BME280;60605;53.716;19.940;2023-04-21T13:27:29;100655.63;;;20.31;29.78
57900;BME280;60605;53.716;19.940;2023-04-21T13:32:32;100657.92;;;20.47;29.55
57900;BME280;60605;53.716;19.940;2023-04-21T13:37:39;100657.15;;;20.45;29.11
57900;BME280;60605;53.716;19.940;2023-04-21T13:42:42;100649.69;;;20.36;29.10
57900;BME280;60605;53.716;19.940;2023-04-21T13:47:46;100636.16;;;20.31;29.13
57900;BME280;60605;53.716;19.940;2023-04-21T13:52:49;100636.23;;;20.32;29.02
57900;BME280;60605;53.716;19.940;2023-04-21T13:57:53;100629.74;;;20.29;28.41
57900;BME280;60605;53.716;19.940;2023-04-21T14:02:56;100626.18;;;20.22;28.83
57900;BME280;60605;53.716;19.940;2023-04-21T14:08:00;100619.06;;;20.28;29.48
57900;BME280;60605;53.716;19.940;2023-04-21T14:13:03;100607.27;;;20.42;29.23
57900;BME280;60605;53.716;19.940;2023-04-21T14:18:06;100601.37;;;20.44;28.84
57900;BME280;60605;53.716;19.940;2023-04-21T14:23:10;100594.55;;;20.45;28.92
57900;BME280;60605;53.716;19.940;2023-04-21T14:28:13;100588.90;;;20.57;29.18
57900;BME280;60605;53.716;19.940;2023-04-21T14:33:17;100583.70;;;20.70;28.40
57900;BME280;60605;53.716;19.940;2023-04-21T14:38:20;100575.40;;;20.78;28.76
57900;BME280;60605;53.716;19.940;2023-04-21T14:43:23;100566.88;;;20.75;28.69
57900;BME280;60605;53.716;19.940;2023-04-21T14:48:27;100558.14;;;20.60;28.53
57900;BME280;60605;53.716;19.940;2023-04-21T14:53:30;100558.44;;;20.38;28.91
57900;BME280;60605;53.716;19.940;2023-04-21T14:58:33;100555.91;;;20.28;29.94
57900;BME280;60605;53.716;19.940;2023-04-21T15:03:36;100550.47;;;20.30;30.70
57900;BME280;60605;53.716;19.940;2023-04-21T15:08:40;100549.55;;;20.30;30.95
57900;BME280;60605;53.716;19.940;2023-04-21T15:13:43;100545.29;;;20.15;31.14
57900;BME280;60605;53.716;19.940;2023-04-21T15:18:46;100542.77;;;20.00;31.04
57900;BME280;60605;53.716;19.940;2023-04-21T15:23:50;100540.56;;;19.85;30.69
57900;BME280;60605;53.716;19.940;2023-04-21T15:28:54;100538.13;;;19.71;30.94
57900;BME280;60605;53.716;19.940;2023-04-21T15:33:57;100530.60;;;19.46;30.71
57900;BME280;60605;53.716;19.940;2023-04-21T15:39:01;100527.64;;;19.19;31.41
57900;BME280;60605;53.716;19.940;2023-04-21T15:44:04;100521.55;;;18.98;32.06
57900;BME280;60605;53.716;19.940;2023-04-21T15:49:07;100519.35;;;18.87;32.26
57900;BME280;60605;53.716;19.940;2023-04-21T15:54:11;100519.22;;;18.80;32.56
57900;BME280;60605;53.716;19.940;2023-04-21T15:59:14;100517.55;;;18.75;32.76
57900;BME280;60605;53.716;19.940;2023-04-21T16:04:18;100514.96;;;18.68;32.61
57900;BME280;60605;53.716;19.940;2023-04-21T16:09:23;100509.34;;;18.59;32.87
57900;BME280;60605;53.716;19.940;2023-04-21T16:14:26;100512.48;;;18.50;33.19
57900;BME280;60605;53.716;19.940;2023-04-21T16:19:35;100509.80;;;18.39;33.60
57900;BME280;60605;53.716;19.940;2023-04-21T16:24:43;100504.38;;;18.22;35.25
57900;BME280;60605;53.716;19.940;2023-04-21T16:29:47;100502.69;;;18.06;35.90
57900;BME280;60605;53.716;19.940;2023-04-21T16:34:52;100502.02;;;17.89;36.79
57900;BME280;60605;53.716;19.940;2023-04-21T16:39:55;100497.23;;;17.67;37.47
57900;BME280;60605;53.716;19.940;2023-04-21T16:44:58;100503.72;;;17.41;37.78
57900;BME280;60605;53.716;19.940;2023-04-21T16:50:06;100505.95;;;17.14;38.15
57900;BME280;60605;53.716;19.940;2023-04-21T16:55:10;100500.52;;;16.90;38.62
57900;BME280;60605;53.716;19.940;2023-04-21T17:00:14;100500.09;;;16.69;39.10
57900;BME280;60605;53.716;19.940;2023-04-21T17:05:17;100504.45;;;16.52;39.38
57900;BME280;60605;53.716;19.940;2023-04-21T17:10:20;100504.89;;;16.37;39.58
57900;BME280;60605;53.716;19.940;2023-04-21T17:15:24;100506.34;;;16.22;39.81
57900;BME280;60605;53.716;19.940;2023-04-21T17:20:28;100503.00;;;16.05;40.12
57900;BME280;60605;53.716;19.940;2023-04-21T17:25:41;100503.77;;;15.85;40.41
57900;BME280;60605;53.716;19.940;2023-04-21T17:31:18;100507.16;;;15.62;40.52
57900;BME280;60605;53.716;19.940;2023-04-21T17:36:28;100509.69;;;15.39;41.05
57900;BME280;60605;53.716;19.940;2023-04-21T17:41:32;100513.30;;;15.14;41.69
57900;BME280;60605;53.716;19.940;2023-04-21T17:46:36;100512.12;;;14.89;42.24
57900;BME280;60605;53.716;19.940;2023-04-21T17:51:39;100512.59;;;14.68;42.75
57900;BME280;60605;53.716;19.940;2023-04-21T17:56:43;100519.34;;;14.47;43.17
57900;BME280;60605;53.716;19.940;2023-04-21T18:01:48;100520.22;;;14.24;43.57
57900;BME280;60605;53.716;19.940;2023-04-21T18:06:51;100521.42;;;14.04;43.95
57900;BME280;60605;53.716;19.940;2023-04-21T18:11:54;100521.17;;;13.83;44.59
57900;BME280;60605;53.716;19.940;2023-04-21T18:16:58;100522.62;;;13.60;45.08
57900;BME280;60605;53.716;19.940;2023-04-21T18:22:02;100524.19;;;13.40;45.55
57900;BME280;60605;53.716;19.940;2023-04-21T18:27:05;100521.91;;;13.21;45.85
57900;BME280;60605;53.716;19.940;2023-04-21T18:32:09;100530.31;;;13.05;45.88
57900;BME280;60605;53.716;19.940;2023-04-21T18:37:12;100533.34;;;12.89;45.73
57900;BME280;60605;53.716;19.940;2023-04-21T18:42:16;100532.98;;;12.78;45.54
57900;BME280;60605;53.716;19.940;2023-04-21T18:47:19;100531.52;;;12.64;45.34
57900;BME280;60605;53.716;19.940;2023-04-21T18:52:23;100532.50;;;12.50;45.24
57900;BME280;60605;53.716;19.940;2023-04-21T18:57:26;100531.77;;;12.40;44.97
57900;BME280;60605;53.716;19.940;2023-04-21T19:02:30;100526.15;;;12.30;45.01
57900;BME280;60605;53.716;19.940;2023-04-21T19:07:33;100526.19;;;12.16;45.17
57900;BME280;60605;53.716;19.940;2023-04-21T19:12:37;100527.16;;;12.00;45.22
57900;BME280;60605;53.716;19.940;2023-04-21T19:17:43;100527.61;;;11.83;45.37
57900;BME280;60605;53.716;19.940;2023-04-21T19:22:47;100520.66;;;11.69;45.55
57900;BME280;60605;53.716;19.940;2023-04-21T19:27:50;100521.81;;;11.55;45.86
57900;BME280;60605;53.716;19.940;2023-04-21T19:32:56;100519.33;;;11.41;46.15
57900;BME280;60605;53.716;19.940;2023-04-21T19:38:00;100519.61;;;11.29;46.68
57900;BME280;60605;53.716;19.940;2023-04-21T19:43:05;100520.67;;;11.17;47.19
57900;BME280;60605;53.716;19.940;2023-04-21T19:48:10;100517.72;;;11.05;47.22
57900;BME280;60605;53.716;19.940;2023-04-21T19:53:14;100515.67;;;10.92;47.36
57900;BME280;60605;53.716;19.940;2023-04-21T19:58:17;100510.23;;;10.76;47.76
57900;BME280;60605;53.716;19.940;2023-04-21T20:03:40;100503.69;;;10.60;48.10
57900;BME280;60605;53.716;19.940;2023-04-21T20:08:45;100501.87;;;10.48;48.48
57900;BME280;60605;53.716;19.940;2023-04-21T20:13:48;100505.18;;;10.36;48.71
57900;BME280;60605;53.716;19.940;2023-04-21T20:18:52;100503.89;;;10.27;49.03
57900;BME280;60605;53.716;19.940;2023-04-21T20:23:56;100503.80;;;10.22;49.05
57900;BME280;60605;53.716;19.940;2023-04-21T20:28:59;100505.17;;;10.17;48.98
57900;BME280;60605;53.716;19.940;2023-04-21T20:34:02;100504.30;;;10.10;49.09
57900;BME280;60605;53.716;19.940;2023-04-21T20:39:07;100502.43;;;9.97;49.31
57900;BME280;60605;53.716;19.940;2023-04-21T20:44:11;100506.25;;;9.83;49.60
57900;BME280;60605;53.716;19.940;2023-04-21T20:49:14;100510.26;;;9.67;49.82
57900;BME280;60605;53.716;19.940;2023-04-21T20:54:18;100512.65;;;9.47;49.84
57900;BME280;60605;53.716;19.940;2023-04-21T20:59:22;100507.91;;;9.29;50.11
57900;BME280;60605;53.716;19.940;2023-04-21T21:04:25;100503.40;;;9.10;50.48
57900;BME280;60605;53.716;19.940;2023-04-21T21:09:29;100505.88;;;8.89;52.15
57900;BME280;60605;53.716;19.940;2023-04-21T21:14:32;100506.19;;;8.63;53.81
57900;BME280;60605;53.716;19.940;2023-04-21T21:19:36;100513.68;;;8.37;55.22
57900;BME280;60605;53.716;19.940;2023-04-21T21:24:40;100515.26;;;8.15;55.85
57900;BME280;60605;53.716;19.940;2023-04-21T21:29:43;100518.34;;;7.98;56.65
57900;BME280;60605;53.716;19.940;2023-04-21T21:34:46;100515.11;;;7.83;57.59
57900;BME280;60605;53.716;19.940;2023-04-21T21:39:51;100513.30;;;7.69;58.41
57900;BME280;60605;53.716;19.940;2023-04-21T21:44:57;100512.83;;;7.58;58.60
57900;BME280;60605;53.716;19.940;2023-04-21T21:50:01;100507.78;;;7.46;59.66
57900;BME280;60605;53.716;19.940;2023-04-21T21:55:05;100505.14;;;7.33;61.08
57900;BME280;60605;53.716;19.940;2023-04-21T22:00:10;100502.52;;;7.20;62.48
57900;BME280;60605;53.716;19.940;2023-04-21T22:05:17;100499.08;;;7.07;63.79
57900;BME280;60605;53.716;19.940;2023-04-21T22:10:22;100501.73;;;6.95;64.69
57900;BME280;60605;53.716;19.940;2023-04-21T22:15:26;100501.73;;;6.82;65.26
57900;BME280;60605;53.716;19.940;2023-04-21T22:20:29;100501.68;;;6.72;66.15
57900;BME280;60605;53.716;19.940;2023-04-21T22:25:33;100499.41;;;6.62;66.87
57900;BME280;60605;53.716;19.940;2023-04-21T22:30:36;100498.95;;;6.53;67.50
57900;BME280;60605;53.716;19.940;2023-04-21T22:35:39;100499.30;;;6.44;68.02
57900;BME280;60605;53.716;19.940;2023-04-21T22:40:44;100495.67;;;6.34;68.25
57900;BME280;60605;53.716;19.940;2023-04-21T22:45:47;100496.20;;;6.23;68.29
57900;BME280;60605;53.716;19.940;2023-04-21T22:50:52;100496.33;;;6.12;67.88
57900;BME280;60605;53.716;19.940;2023-04-21T22:55:57;100496.35;;;6.00;67.65
57900;BME280;60605;53.716;19.940;2023-04-21T23:01:00;100491.60;;;5.91;67.82
57900;BME280;60605;53.716;19.940;2023-04-21T23:06:04;100486.83;;;5.82;68.04
57900;BME280;60605;53.716;19.940;2023-04-21T23:11:07;100480.69;;;5.72;68.35
57900;BME280;60605;53.716;19.940;2023-04-21T23:16:11;100479.89;;;5.61;68.63
57900;BME280;60605;53.716;19.940;2023-04-21T23:21:14;100478.80;;;5.50;68.84
57900;BME280;60605;53.716;19.940;2023-04-21T23:26:18;100480.78;;;5.40;69.76
57900;BME280;60605;53.716;19.940;2023-04-21T23:31:21;100479.14;;;5.29;70.98
57900;BME280;60605;53.716;19.940;2023-04-21T23:36:25;100475.23;;;5.17;72.07
57900;BME280;60605;53.716;19.940;2023-04-21T23:41:28;100474.30;;;5.06;73.10
57900;BME280;60605;53.716;19.940;2023-04-21T23:46:32;100467.98;;;4.96;74.33
57900;BME280;60605;53.716;19.940;2023-04-21T23:51:35;100463.33;;;4.87;75.38
57900;BME280;60605;53.716;19.940;2023-04-21T23:56:38;100463.13;;;4.78;76.08
